sensor_id;sensor_type;location;lat;lon;timestamp;P1;durP1;ratioP1;P2;durP2;ratioP2
72557;SDS011;60583;50.094;8.748;2023-05-10T00:02:24;2.88;;;1.25;;
72557;SDS011;60583;50.094;8.748;2023-05-10T00:04:49;3.22;;;1.33;;
72557;SDS011;60583;50.094;8.748;2023-05-10T00:07:15;3.20;;;1.20;;
72557;SDS011;60583;50.094;8.748;2023-05-10T00:09:42;3.22;;;1.10;;
72557;SDS011;60583;50.094;8.748;2023-05-10T00:12:08;4.63;;;1.50;;
72557;SDS011;60583;50.094;8.748;2023-05-10T00:14:33;5.00;;;1.40;;
72557;SDS011;60583;50.094;8.748;2023-05-10T00:16:59;3.63;;;1.40;;
72557;SDS011;60583;50.094;8.748;2023-05-10T00:19:25;5.82;;;1.55;;
72557;SDS011;60583;50.094;8.748;2023-05-10T00:21:50;2.90;;;1.20;;
72557;SDS011;60583;50.094;8.748;2023-05-10T00:24:16;2.80;;;0.93;;
72557;SDS011;60583;50.094;8.748;2023-05-10T00:26:41;3.90;;;1.30;;
72557;SDS011;60583;50.094;8.748;2023-05-10T00:29:07;2.40;;;0.95;;
72557;SDS011;60583;50.094;8.748;2023-05-10T00:31:32;2.88;;;0.80;;
72557;SDS011;60583;50.094;8.748;2023-05-10T00:33:58;3.08;;;1.10;;
72557;SDS011;60583;50.094;8.748;2023-05-10T00:36:23;2.17;;;0.80;;
72557;SDS011;60583;50.094;8.748;2023-05-10T00:38:48;3.55;;;0.85;;
72557;SDS011;60583;50.094;8.748;2023-05-10T00:41:14;2.28;;;0.80;;
72557;SDS011;60583;50.094;8.748;2023-05-10T00:43:40;2.30;;;0.80;;
72557;SDS011;60583;50.094;8.748;2023-05-10T00:46:06;3.25;;;0.88;;
72557;SDS011;60583;50.094;8.748;2023-05-10T00:48:32;1.98;;;0.80;;
72557;SDS011;60583;50.094;8.748;2023-05-10T00:50:58;1.98;;;0.88;;
72557;SDS011;60583;50.094;8.748;2023-05-10T00:53:24;2.25;;;0.60;;
72557;SDS011;60583;50.094;8.748;2023-05-10T00:55:49;2.25;;;0.73;;
72557;SDS011;60583;50.094;8.748;2023-05-10T00:58:16;1.50;;;0.60;;
72557;SDS011;60583;50.094;8.748;2023-05-10T01:00:42;2.13;;;0.70;;
72557;SDS011;60583;50.094;8.748;2023-05-10T01:03:10;2.95;;;0.65;;
72557;SDS011;60583;50.094;8.748;2023-05-10T01:05:36;1.40;;;0.55;;
72557;SDS011;60583;50.094;8.748;2023-05-10T01:08:02;2.95;;;0.75;;
72557;SDS011;60583;50.094;8.748;2023-05-10T01:10:28;2.35;;;0.73;;
72557;SDS011;60583;50.094;8.748;2023-05-10T01:12:53;1.05;;;0.50;;
72557;SDS011;60583;50.094;8.748;2023-05-10T01:15:20;1.75;;;0.52;;
72557;SDS011;60583;50.094;8.748;2023-05-10T01:17:46;2.05;;;0.70;;
72557;SDS011;60583;50.094;8.748;2023-05-10T01:20:15;2.33;;;0.70;;
72557;SDS011;60583;50.094;8.748;2023-05-10T01:22:45;1.65;;;0.60;;
72557;SDS011;60583;50.094;8.748;2023-05-10T01:31:28;2.13;;;0.50;;
72557;SDS011;60583;50.094;8.748;2023-05-10T01:34:09;1.05;;;0.50;;
72557;SDS011;60583;50.094;8.748;2023-05-10T01:36:43;2.05;;;0.63;;
72557;SDS011;60583;50.094;8.748;2023-05-10T01:47:31;2.50;;;0.63;;
72557;SDS011;60583;50.094;8.748;2023-05-10T01:50:03;1.48;;;0.60;;
72557;SDS011;60583;50.094;8.748;2023-05-10T01:52:33;4.35;;;0.63;;
72557;SDS011;60583;50.094;8.748;2023-05-10T01:55:02;2.55;;;0.65;;
72557;SDS011;60583;50.094;8.748;2023-05-10T01:57:33;1.20;;;0.50;;
72557;SDS011;60583;50.094;8.748;2023-05-10T02:00:01;1.45;;;0.50;;
72557;SDS011;60583;50.094;8.748;2023-05-10T02:02:33;2.42;;;0.60;;
72557;SDS011;60583;50.094;8.748;2023-05-10T02:05:02;2.15;;;0.80;;
72557;SDS011;60583;50.094;8.748;2023-05-10T02:07:30;2.25;;;0.63;;
72557;SDS011;60583;50.094;8.748;2023-05-10T02:09:59;2.20;;;1.00;;
72557;SDS011;60583;50.094;8.748;2023-05-10T02:12:25;3.22;;;0.70;;
72557;SDS011;60583;50.094;8.748;2023-05-10T02:14:52;2.22;;;0.68;;
72557;SDS011;60583;50.094;8.748;2023-05-10T02:17:19;2.13;;;0.60;;
72557;SDS011;60583;50.094;8.748;2023-05-10T02:19:46;1.55;;;0.60;;
72557;SDS011;60583;50.094;8.748;2023-05-10T02:22:12;2.33;;;0.88;;
72557;SDS011;60583;50.094;8.748;2023-05-10T02:24:38;2.88;;;1.08;;
72557;SDS011;60583;50.094;8.748;2023-05-10T02:27:06;1.13;;;0.60;;
72557;SDS011;60583;50.094;8.748;2023-05-10T02:29:34;2.33;;;0.70;;
72557;SDS011;60583;50.094;8.748;2023-05-10T02:32:01;2.47;;;0.65;;
72557;SDS011;60583;50.094;8.748;2023-05-10T02:34:27;1.38;;;0.68;;
72557;SDS011;60583;50.094;8.748;2023-05-10T02:36:53;2.53;;;0.70;;
72557;SDS011;60583;50.094;8.748;2023-05-10T02:39:21;1.65;;;0.63;;
72557;SDS011;60583;50.094;8.748;2023-05-10T02:41:50;1.27;;;0.50;;
72557;SDS011;60583;50.094;8.748;2023-05-10T02:44:17;1.98;;;0.80;;
72557;SDS011;60583;50.094;8.748;2023-05-10T02:46:44;2.65;;;1.15;;
72557;SDS011;60583;50.094;8.748;2023-05-10T02:49:10;1.77;;;0.80;;
72557;SDS011;60583;50.094;8.748;2023-05-10T02:51:36;4.38;;;1.05;;
72557;SDS011;60583;50.094;8.748;2023-05-10T02:54:08;2.67;;;0.80;;
72557;SDS011;60583;50.094;8.748;2023-05-10T02:56:40;2.22;;;1.00;;
72557;SDS011;60583;50.094;8.748;2023-05-10T02:59:11;1.40;;;0.93;;
72557;SDS011;60583;50.094;8.748;2023-05-10T03:01:37;2.13;;;1.00;;
72557;SDS011;60583;50.094;8.748;2023-05-10T03:04:03;2.45;;;0.80;;
72557;SDS011;60583;50.094;8.748;2023-05-10T03:06:28;3.22;;;1.00;;
72557;SDS011;60583;50.094;8.748;2023-05-10T03:08:54;2.28;;;0.82;;
72557;SDS011;60583;50.094;8.748;2023-05-10T03:11:26;3.65;;;1.00;;
72557;SDS011;60583;50.094;8.748;2023-05-10T03:17:00;2.33;;;1.13;;
72557;SDS011;60583;50.094;8.748;2023-05-10T03:19:37;2.30;;;0.80;;
72557;SDS011;60583;50.094;8.748;2023-05-10T03:22:08;2.75;;;0.70;;
72557;SDS011;60583;50.094;8.748;2023-05-10T03:24:39;3.22;;;1.13;;
72557;SDS011;60583;50.094;8.748;2023-05-10T03:27:06;2.15;;;0.82;;
72557;SDS011;60583;50.094;8.748;2023-05-10T03:29:33;2.67;;;0.90;;
72557;SDS011;60583;50.094;8.748;2023-05-10T03:31:59;2.70;;;1.00;;
72557;SDS011;60583;50.094;8.748;2023-05-10T03:34:25;2.63;;;1.00;;
72557;SDS011;60583;50.094;8.748;2023-05-10T03:36:51;2.72;;;0.90;;
72557;SDS011;60583;50.094;8.748;2023-05-10T03:39:16;3.33;;;1.00;;
72557;SDS011;60583;50.094;8.748;2023-05-10T03:41:41;2.25;;;0.90;;
72557;SDS011;60583;50.094;8.748;2023-05-10T03:44:07;2.33;;;1.00;;
72557;SDS011;60583;50.094;8.748;2023-05-10T03:46:32;2.60;;;0.90;;
72557;SDS011;60583;50.094;8.748;2023-05-10T03:48:57;2.65;;;1.08;;
72557;SDS011;60583;50.094;8.748;2023-05-10T03:51:23;2.42;;;0.82;;
72557;SDS011;60583;50.094;8.748;2023-05-10T03:53:52;2.88;;;1.10;;
72557;SDS011;60583;50.094;8.748;2023-05-10T03:56:18;3.40;;;1.08;;
72557;SDS011;60583;50.094;8.748;2023-05-10T03:58:43;3.15;;;0.90;;
72557;SDS011;60583;50.094;8.748;2023-05-10T04:01:09;3.13;;;1.02;;
72557;SDS011;60583;50.094;8.748;2023-05-10T04:03:35;3.42;;;0.80;;
72557;SDS011;60583;50.094;8.748;2023-05-10T04:06:01;2.65;;;1.23;;
72557;SDS011;60583;50.094;8.748;2023-05-10T04:08:27;2.58;;;1.05;;
72557;SDS011;60583;50.094;8.748;2023-05-10T04:10:53;2.50;;;0.93;;
72557;SDS011;60583;50.094;8.748;2023-05-10T04:13:18;2.95;;;1.30;;
72557;SDS011;60583;50.094;8.748;2023-05-10T04:15:44;3.63;;;1.10;;
72557;SDS011;60583;50.094;8.748;2023-05-10T04:18:10;2.50;;;1.20;;
72557;SDS011;60583;50.094;8.748;2023-05-10T04:20:35;3.42;;;1.00;;
72557;SDS011;60583;50.094;8.748;2023-05-10T04:23:00;2.70;;;1.30;;
72557;SDS011;60583;50.094;8.748;2023-05-10T04:25:26;4.03;;;1.13;;
72557;SDS011;60583;50.094;8.748;2023-05-10T04:27:51;2.67;;;1.15;;
72557;SDS011;60583;50.094;8.748;2023-05-10T04:30:17;3.33;;;1.20;;
72557;SDS011;60583;50.094;8.748;2023-05-10T04:32:42;3.15;;;1.20;;
72557;SDS011;60583;50.094;8.748;2023-05-10T04:35:08;4.47;;;1.25;;
72557;SDS011;60583;50.094;8.748;2023-05-10T04:37:35;3.97;;;1.15;;
72557;SDS011;60583;50.094;8.748;2023-05-10T04:40:01;4.55;;;1.30;;
72557;SDS011;60583;50.094;8.748;2023-05-10T04:42:28;3.30;;;1.20;;
72557;SDS011;60583;50.094;8.748;2023-05-10T04:44:53;4.28;;;1.23;;
72557;SDS011;60583;50.094;8.748;2023-05-10T04:47:19;3.45;;;1.30;;
72557;SDS011;60583;50.094;8.748;2023-05-10T04:49:44;4.30;;;1.30;;
72557;SDS011;60583;50.094;8.748;2023-05-10T04:52:11;3.42;;;1.50;;
72557;SDS011;60583;50.094;8.748;2023-05-10T04:54:37;4.55;;;1.40;;
72557;SDS011;60583;50.094;8.748;2023-05-10T04:57:02;3.78;;;1.33;;
72557;SDS011;60583;50.094;8.748;2023-05-10T04:59:27;3.13;;;1.15;;
72557;SDS011;60583;50.094;8.748;2023-05-10T05:01:53;3.28;;;1.20;;
72557;SDS011;60583;50.094;8.748;2023-05-10T05:04:18;3.78;;;1.30;;
72557;SDS011;60583;50.094;8.748;2023-05-10T05:06:44;3.83;;;1.20;;
72557;SDS011;60583;50.094;8.748;2023-05-10T05:09:09;3.95;;;1.23;;
72557;SDS011;60583;50.094;8.748;2023-05-10T05:11:36;4.25;;;1.42;;
72557;SDS011;60583;50.094;8.748;2023-05-10T05:14:01;3.90;;;1.25;;
72557;SDS011;60583;50.094;8.748;2023-05-10T05:16:26;2.38;;;1.08;;
72557;SDS011;60583;50.094;8.748;2023-05-10T05:18:52;4.47;;;1.42;;
72557;SDS011;60583;50.094;8.748;2023-05-10T05:21:18;3.63;;;1.60;;
72557;SDS011;60583;50.094;8.748;2023-05-10T05:23:44;7.32;;;1.70;;
72557;SDS011;60583;50.094;8.748;2023-05-10T05:26:10;3.55;;;1.60;;
72557;SDS011;60583;50.094;8.748;2023-05-10T05:28:36;3.30;;;1.52;;
72557;SDS011;60583;50.094;8.748;2023-05-10T05:31:05;3.47;;;1.73;;
72557;SDS011;60583;50.094;8.748;2023-05-10T05:33:32;3.45;;;1.58;;
72557;SDS011;60583;50.094;8.748;2023-05-10T05:36:04;3.95;;;1.80;;
72557;SDS011;60583;50.094;8.748;2023-05-10T05:38:30;3.58;;;1.52;;
72557;SDS011;60583;50.094;8.748;2023-05-10T05:40:56;3.55;;;1.48;;
72557;SDS011;60583;50.094;8.748;2023-05-10T05:43:22;3.85;;;1.55;;
72557;SDS011;60583;50.094;8.748;2023-05-10T05:45:47;3.65;;;1.70;;
72557;SDS011;60583;50.094;8.748;2023-05-10T05:48:13;4.47;;;2.00;;
72557;SDS011;60583;50.094;8.748;2023-05-10T05:50:38;4.18;;;1.55;;
72557;SDS011;60583;50.094;8.748;2023-05-10T05:53:03;3.63;;;1.70;;
72557;SDS011;60583;50.094;8.748;2023-05-10T05:55:33;4.47;;;1.90;;
72557;SDS011;60583;50.094;8.748;2023-05-10T05:57:59;3.83;;;1.90;;
72557;SDS011;60583;50.094;8.748;2023-05-10T06:00:24;3.40;;;1.70;;
72557;SDS011;60583;50.094;8.748;2023-05-10T06:02:51;4.60;;;1.90;;
72557;SDS011;60583;50.094;8.748;2023-05-10T06:05:16;4.45;;;1.90;;
72557;SDS011;60583;50.094;8.748;2023-05-10T06:07:41;4.45;;;2.08;;
72557;SDS011;60583;50.094;8.748;2023-05-10T06:10:07;6.75;;;2.80;;
72557;SDS011;60583;50.094;8.748;2023-05-10T06:12:33;3.58;;;1.70;;
72557;SDS011;60583;50.094;8.748;2023-05-10T06:14:59;4.00;;;1.88;;
72557;SDS011;60583;50.094;8.748;2023-05-10T06:17:24;4.57;;;1.90;;
72557;SDS011;60583;50.094;8.748;2023-05-10T06:19:50;3.88;;;2.20;;
72557;SDS011;60583;50.094;8.748;2023-05-10T06:22:15;4.10;;;1.95;;
72557;SDS011;60583;50.094;8.748;2023-05-10T06:24:41;4.40;;;2.00;;
72557;SDS011;60583;50.094;8.748;2023-05-10T06:27:06;7.90;;;2.80;;
72557;SDS011;60583;50.094;8.748;2023-05-10T06:29:32;4.38;;;2.17;;
72557;SDS011;60583;50.094;8.748;2023-05-10T06:31:58;4.60;;;2.30;;
72557;SDS011;60583;50.094;8.748;2023-05-10T06:34:23;5.88;;;2.08;;
72557;SDS011;60583;50.094;8.748;2023-05-10T06:36:49;4.43;;;2.00;;
72557;SDS011;60583;50.094;8.748;2023-05-10T06:39:14;5.80;;;2.17;;
72557;SDS011;60583;50.094;8.748;2023-05-10T06:41:41;5.00;;;2.15;;
72557;SDS011;60583;50.094;8.748;2023-05-10T06:44:06;4.18;;;2.00;;
72557;SDS011;60583;50.094;8.748;2023-05-10T06:46:32;5.03;;;2.25;;
72557;SDS011;60583;50.094;8.748;2023-05-10T06:48:57;5.75;;;2.53;;
72557;SDS011;60583;50.094;8.748;2023-05-10T06:51:23;4.45;;;2.20;;
72557;SDS011;60583;50.094;8.748;2023-05-10T06:53:48;6.30;;;2.80;;
72557;SDS011;60583;50.094;8.748;2023-05-10T06:56:13;4.40;;;2.17;;
72557;SDS011;60583;50.094;8.748;2023-05-10T06:58:39;5.25;;;2.30;;
72557;SDS011;60583;50.094;8.748;2023-05-10T07:01:04;5.68;;;2.30;;
72557;SDS011;60583;50.094;8.748;2023-05-10T07:03:30;5.15;;;2.17;;
72557;SDS011;60583;50.094;8.748;2023-05-10T07:06:02;6.82;;;2.25;;
72557;SDS011;60583;50.094;8.748;2023-05-10T07:08:31;4.68;;;2.45;;
72557;SDS011;60583;50.094;8.748;2023-05-10T07:11:04;4.25;;;1.92;;
72557;SDS011;60583;50.094;8.748;2023-05-10T07:13:32;6.60;;;2.30;;
72557;SDS011;60583;50.094;8.748;2023-05-10T07:15:58;5.07;;;2.35;;
72557;SDS011;60583;50.094;8.748;2023-05-10T07:18:25;6.68;;;2.00;;
72557;SDS011;60583;50.094;8.748;2023-05-10T07:20:50;8.00;;;2.40;;
72557;SDS011;60583;50.094;8.748;2023-05-10T07:23:16;5.18;;;2.05;;
72557;SDS011;60583;50.094;8.748;2023-05-10T07:25:44;4.90;;;2.30;;
72557;SDS011;60583;50.094;8.748;2023-05-10T07:28:10;7.53;;;3.38;;
72557;SDS011;60583;50.094;8.748;2023-05-10T07:30:36;10.02;;;4.43;;
72557;SDS011;60583;50.094;8.748;2023-05-10T07:33:01;5.57;;;2.60;;
72557;SDS011;60583;50.094;8.748;2023-05-10T07:35:27;4.95;;;2.13;;
72557;SDS011;60583;50.094;8.748;2023-05-10T07:37:52;6.90;;;2.17;;
72557;SDS011;60583;50.094;8.748;2023-05-10T07:40:17;5.20;;;2.45;;
72557;SDS011;60583;50.094;8.748;2023-05-10T07:42:43;5.18;;;2.20;;
72557;SDS011;60583;50.094;8.748;2023-05-10T07:45:09;6.03;;;2.60;;
72557;SDS011;60583;50.094;8.748;2023-05-10T07:47:34;6.18;;;2.50;;
72557;SDS011;60583;50.094;8.748;2023-05-10T07:49:59;5.18;;;2.30;;
72557;SDS011;60583;50.094;8.748;2023-05-10T07:52:25;6.43;;;2.22;;
72557;SDS011;60583;50.094;8.748;2023-05-10T07:54:50;6.28;;;2.60;;
72557;SDS011;60583;50.094;8.748;2023-05-10T07:57:16;5.68;;;2.58;;
72557;SDS011;60583;50.094;8.748;2023-05-10T07:59:43;6.70;;;2.17;;
72557;SDS011;60583;50.094;8.748;2023-05-10T08:02:09;4.15;;;2.10;;
72557;SDS011;60583;50.094;8.748;2023-05-10T08:04:35;5.40;;;2.10;;
72557;SDS011;60583;50.094;8.748;2023-05-10T08:07:00;5.15;;;2.22;;
72557;SDS011;60583;50.094;8.748;2023-05-10T08:09:25;7.72;;;2.90;;
72557;SDS011;60583;50.094;8.748;2023-05-10T08:11:51;5.88;;;2.47;;
72557;SDS011;60583;50.094;8.748;2023-05-10T08:14:16;8.43;;;3.58;;
72557;SDS011;60583;50.094;8.748;2023-05-10T08:16:42;5.22;;;2.80;;
72557;SDS011;60583;50.094;8.748;2023-05-10T08:19:07;7.68;;;3.58;;
72557;SDS011;60583;50.094;8.748;2023-05-10T08:21:33;10.80;;;2.60;;
72557;SDS011;60583;50.094;8.748;2023-05-10T08:23:58;5.35;;;2.25;;
72557;SDS011;60583;50.094;8.748;2023-05-10T08:26:23;6.35;;;2.30;;
72557;SDS011;60583;50.094;8.748;2023-05-10T08:28:49;4.68;;;2.20;;
72557;SDS011;60583;50.094;8.748;2023-05-10T08:31:14;5.07;;;2.40;;
72557;SDS011;60583;50.094;8.748;2023-05-10T08:33:40;6.25;;;2.50;;
72557;SDS011;60583;50.094;8.748;2023-05-10T08:36:05;6.40;;;2.38;;
72557;SDS011;60583;50.094;8.748;2023-05-10T08:38:31;4.65;;;2.40;;
72557;SDS011;60583;50.094;8.748;2023-05-10T08:40:56;5.88;;;2.10;;
72557;SDS011;60583;50.094;8.748;2023-05-10T08:43:24;4.15;;;2.22;;
72557;SDS011;60583;50.094;8.748;2023-05-10T08:45:54;4.90;;;2.05;;
72557;SDS011;60583;50.094;8.748;2023-05-10T08:48:20;5.32;;;2.40;;
72557;SDS011;60583;50.094;8.748;2023-05-10T08:50:48;5.40;;;2.05;;
72557;SDS011;60583;50.094;8.748;2023-05-10T08:53:17;5.00;;;2.05;;
72557;SDS011;60583;50.094;8.748;2023-05-10T08:55:44;4.78;;;2.00;;
72557;SDS011;60583;50.094;8.748;2023-05-10T08:58:10;6.07;;;2.13;;
72557;SDS011;60583;50.094;8.748;2023-05-10T09:00:35;3.80;;;1.83;;
72557;SDS011;60583;50.094;8.748;2023-05-10T09:03:02;6.50;;;2.08;;
72557;SDS011;60583;50.094;8.748;2023-05-10T09:05:29;5.07;;;2.00;;
72557;SDS011;60583;50.094;8.748;2023-05-10T09:07:55;5.15;;;1.98;;
72557;SDS011;60583;50.094;8.748;2023-05-10T09:10:20;7.95;;;3.67;;
72557;SDS011;60583;50.094;8.748;2023-05-10T09:12:46;5.25;;;2.30;;
72557;SDS011;60583;50.094;8.748;2023-05-10T09:15:14;4.65;;;2.10;;
72557;SDS011;60583;50.094;8.748;2023-05-10T09:17:41;5.57;;;1.95;;
72557;SDS011;60583;50.094;8.748;2023-05-10T09:20:08;4.25;;;2.05;;
72557;SDS011;60583;50.094;8.748;2023-05-10T09:22:34;5.15;;;1.98;;
72557;SDS011;60583;50.094;8.748;2023-05-10T09:25:06;4.72;;;2.13;;
72557;SDS011;60583;50.094;8.748;2023-05-10T09:27:40;4.60;;;2.13;;
72557;SDS011;60583;50.094;8.748;2023-05-10T09:30:06;3.65;;;1.90;;
72557;SDS011;60583;50.094;8.748;2023-05-10T09:32:36;4.75;;;1.90;;
72557;SDS011;60583;50.094;8.748;2023-05-10T09:35:07;4.68;;;2.10;;
72557;SDS011;60583;50.094;8.748;2023-05-10T09:37:36;3.88;;;2.08;;
72557;SDS011;60583;50.094;8.748;2023-05-10T09:40:06;3.88;;;1.98;;
72557;SDS011;60583;50.094;8.748;2023-05-10T09:42:33;7.22;;;2.45;;
72557;SDS011;60583;50.094;8.748;2023-05-10T09:45:03;7.57;;;2.70;;
72557;SDS011;60583;50.094;8.748;2023-05-10T09:47:31;5.35;;;2.20;;
72557;SDS011;60583;50.094;8.748;2023-05-10T09:49:57;4.90;;;2.00;;
72557;SDS011;60583;50.094;8.748;2023-05-10T09:52:28;4.28;;;2.10;;
72557;SDS011;60583;50.094;8.748;2023-05-10T09:54:54;4.90;;;2.00;;
72557;SDS011;60583;50.094;8.748;2023-05-10T09:57:20;5.22;;;2.28;;
72557;SDS011;60583;50.094;8.748;2023-05-10T09:59:47;3.72;;;1.80;;
72557;SDS011;60583;50.094;8.748;2023-05-10T10:02:12;4.72;;;2.10;;
72557;SDS011;60583;50.094;8.748;2023-05-10T10:04:39;6.07;;;2.15;;
72557;SDS011;60583;50.094;8.748;2023-05-10T10:07:05;5.68;;;2.28;;
72557;SDS011;60583;50.094;8.748;2023-05-10T10:09:31;5.32;;;2.05;;
72557;SDS011;60583;50.094;8.748;2023-05-10T10:11:59;5.05;;;2.00;;
72557;SDS011;60583;50.094;8.748;2023-05-10T10:14:25;7.70;;;2.08;;
72557;SDS011;60583;50.094;8.748;2023-05-10T10:16:50;4.20;;;1.83;;
72557;SDS011;60583;50.094;8.748;2023-05-10T10:19:17;5.40;;;1.98;;
72557;SDS011;60583;50.094;8.748;2023-05-10T10:21:44;4.88;;;1.88;;
72557;SDS011;60583;50.094;8.748;2023-05-10T10:24:09;4.32;;;1.60;;
72557;SDS011;60583;50.094;8.748;2023-05-10T10:26:35;6.25;;;2.58;;
72557;SDS011;60583;50.094;8.748;2023-05-10T10:31:45;8.00;;;2.90;;
72557;SDS011;60583;50.094;8.748;2023-05-10T10:34:28;4.30;;;2.00;;
72557;SDS011;60583;50.094;8.748;2023-05-10T10:36:56;6.85;;;1.92;;
72557;SDS011;60583;50.094;8.748;2023-05-10T10:39:23;5.82;;;2.38;;
72557;SDS011;60583;50.094;8.748;2023-05-10T10:41:53;4.80;;;2.03;;
72557;SDS011;60583;50.094;8.748;2023-05-10T10:44:22;4.38;;;2.10;;
72557;SDS011;60583;50.094;8.748;2023-05-10T10:47:03;5.22;;;2.50;;
72557;SDS011;60583;50.094;8.748;2023-05-10T10:54:59;3.20;;;1.30;;
72557;SDS011;60583;50.094;8.748;2023-05-10T10:57:25;2.97;;;1.08;;
72557;SDS011;60583;50.094;8.748;2023-05-10T11:00:40;2.55;;;1.00;;
72557;SDS011;60583;50.094;8.748;2023-05-10T11:02:44;2.92;;;1.10;;
72557;SDS011;60583;50.094;8.748;2023-05-10T11:07:58;3.25;;;1.10;;
72557;SDS011;60583;50.094;8.748;2023-05-10T11:10:25;4.63;;;1.45;;
72557;SDS011;60583;50.094;8.748;2023-05-10T11:13:10;3.70;;;1.30;;
72557;SDS011;60583;50.094;8.748;2023-05-10T11:15:36;2.63;;;0.93;;
72557;SDS011;60583;50.094;8.748;2023-05-10T11:18:16;3.03;;;0.90;;
72557;SDS011;60583;50.094;8.748;2023-05-10T11:20:41;3.35;;;1.20;;
72557;SDS011;60583;50.094;8.748;2023-05-10T11:23:11;3.97;;;1.20;;
72557;SDS011;60583;50.094;8.748;2023-05-10T11:25:44;4.93;;;1.10;;
72557;SDS011;60583;50.094;8.748;2023-05-10T11:28:13;3.25;;;1.35;;
72557;SDS011;60583;50.094;8.748;2023-05-10T11:30:40;2.80;;;1.20;;
72557;SDS011;60583;50.094;8.748;2023-05-10T11:33:06;4.90;;;1.58;;
72557;SDS011;60583;50.094;8.748;2023-05-10T11:35:39;3.00;;;1.08;;
72557;SDS011;60583;50.094;8.748;2023-05-10T11:38:08;4.10;;;0.98;;
72557;SDS011;60583;50.094;8.748;2023-05-10T11:40:35;3.67;;;1.20;;
72557;SDS011;60583;50.094;8.748;2023-05-10T11:43:01;3.33;;;1.17;;
72557;SDS011;60583;50.094;8.748;2023-05-10T11:45:27;4.40;;;1.30;;
72557;SDS011;60583;50.094;8.748;2023-05-10T11:47:55;3.38;;;1.20;;
72557;SDS011;60583;50.094;8.748;2023-05-10T11:50:20;3.47;;;1.30;;
72557;SDS011;60583;50.094;8.748;2023-05-10T11:52:50;4.32;;;1.40;;
72557;SDS011;60583;50.094;8.748;2023-05-10T11:55:16;2.75;;;1.10;;
72557;SDS011;60583;50.094;8.748;2023-05-10T11:57:42;3.92;;;1.33;;
72557;SDS011;60583;50.094;8.748;2023-05-10T12:00:10;3.90;;;1.23;;
72557;SDS011;60583;50.094;8.748;2023-05-10T12:02:36;3.65;;;1.70;;
72557;SDS011;60583;50.094;8.748;2023-05-10T12:05:01;4.10;;;1.30;;
72557;SDS011;60583;50.094;8.748;2023-05-10T12:07:28;3.63;;;1.60;;
72557;SDS011;60583;50.094;8.748;2023-05-10T12:10:09;3.33;;;1.40;;
72557;SDS011;60583;50.094;8.748;2023-05-10T12:12:40;3.58;;;1.50;;
72557;SDS011;60583;50.094;8.748;2023-05-10T12:17:45;3.20;;;1.38;;
72557;SDS011;60583;50.094;8.748;2023-05-10T12:20:20;3.72;;;1.83;;
72557;SDS011;60583;50.094;8.748;2023-05-10T12:22:50;3.75;;;1.77;;
72557;SDS011;60583;50.094;8.748;2023-05-10T12:25:20;3.67;;;1.75;;
72557;SDS011;60583;50.094;8.748;2023-05-10T12:27:48;3.55;;;1.55;;
72557;SDS011;60583;50.094;8.748;2023-05-10T12:30:21;4.53;;;1.40;;
72557;SDS011;60583;50.094;8.748;2023-05-10T12:35:17;5.38;;;2.28;;
72557;SDS011;60583;50.094;8.748;2023-05-10T12:37:47;3.08;;;1.30;;
72557;SDS011;60583;50.094;8.748;2023-05-10T12:40:13;3.65;;;1.40;;
72557;SDS011;60583;50.094;8.748;2023-05-10T12:42:39;4.28;;;1.20;;
72557;SDS011;60583;50.094;8.748;2023-05-10T12:45:05;3.38;;;1.42;;
72557;SDS011;60583;50.094;8.748;2023-05-10T12:47:32;3.10;;;1.50;;
72557;SDS011;60583;50.094;8.748;2023-05-10T12:49:58;3.13;;;1.30;;
72557;SDS011;60583;50.094;8.748;2023-05-10T12:52:25;2.70;;;1.40;;
72557;SDS011;60583;50.094;8.748;2023-05-10T12:54:51;4.30;;;1.42;;
72557;SDS011;60583;50.094;8.748;2023-05-10T12:57:17;4.13;;;1.20;;
72557;SDS011;60583;50.094;8.748;2023-05-10T12:59:43;2.83;;;1.23;;
72557;SDS011;60583;50.094;8.748;2023-05-10T13:02:08;2.67;;;1.10;;
72557;SDS011;60583;50.094;8.748;2023-05-10T13:04:34;3.05;;;1.25;;
72557;SDS011;60583;50.094;8.748;2023-05-10T13:06:59;2.20;;;1.10;;
72557;SDS011;60583;50.094;8.748;2023-05-10T13:09:25;4.35;;;1.23;;
72557;SDS011;60583;50.094;8.748;2023-05-10T13:11:52;2.80;;;1.35;;
72557;SDS011;60583;50.094;8.748;2023-05-10T13:14:19;2.90;;;1.50;;
72557;SDS011;60583;50.094;8.748;2023-05-10T13:16:45;3.95;;;1.17;;
72557;SDS011;60583;50.094;8.748;2023-05-10T13:19:12;2.67;;;1.00;;
72557;SDS011;60583;50.094;8.748;2023-05-10T13:21:38;3.55;;;1.40;;
72557;SDS011;60583;50.094;8.748;2023-05-10T13:24:03;2.83;;;1.10;;
72557;SDS011;60583;50.094;8.748;2023-05-10T13:26:29;2.80;;;1.23;;
72557;SDS011;60583;50.094;8.748;2023-05-10T13:28:54;4.20;;;1.10;;
72557;SDS011;60583;50.094;8.748;2023-05-10T13:31:20;2.78;;;1.15;;
72557;SDS011;60583;50.094;8.748;2023-05-10T13:33:46;1.73;;;0.95;;
72557;SDS011;60583;50.094;8.748;2023-05-10T13:36:11;2.67;;;1.10;;
72557;SDS011;60583;50.094;8.748;2023-05-10T13:38:37;5.82;;;3.58;;
72557;SDS011;60583;50.094;8.748;2023-05-10T13:41:02;5.10;;;1.85;;
72557;SDS011;60583;50.094;8.748;2023-05-10T13:43:28;3.63;;;0.98;;
72557;SDS011;60583;50.094;8.748;2023-05-10T13:45:54;3.28;;;1.35;;
72557;SDS011;60583;50.094;8.748;2023-05-10T13:48:19;2.85;;;1.00;;
72557;SDS011;60583;50.094;8.748;2023-05-10T13:50:45;2.33;;;1.10;;
72557;SDS011;60583;50.094;8.748;2023-05-10T13:53:11;2.35;;;0.90;;
72557;SDS011;60583;50.094;8.748;2023-05-10T13:55:36;2.28;;;1.08;;
72557;SDS011;60583;50.094;8.748;2023-05-10T13:58:02;2.45;;;0.80;;
72557;SDS011;60583;50.094;8.748;2023-05-10T14:00:27;2.55;;;0.80;;
72557;SDS011;60583;50.094;8.748;2023-05-10T14:02:53;3.92;;;1.05;;
72557;SDS011;60583;50.094;8.748;2023-05-10T14:05:18;2.58;;;0.80;;
72557;SDS011;60583;50.094;8.748;2023-05-10T14:07:44;4.03;;;1.80;;
72557;SDS011;60583;50.094;8.748;2023-05-10T14:10:09;3.83;;;1.05;;
72557;SDS011;60583;50.094;8.748;2023-05-10T14:12:34;2.95;;;1.27;;
72557;SDS011;60583;50.094;8.748;2023-05-10T14:15:00;3.42;;;1.10;;
72557;SDS011;60583;50.094;8.748;2023-05-10T14:17:26;2.30;;;1.02;;
72557;SDS011;60583;50.094;8.748;2023-05-10T14:19:52;3.28;;;1.30;;
72557;SDS011;60583;50.094;8.748;2023-05-10T14:22:17;6.68;;;2.38;;
72557;SDS011;60583;50.094;8.748;2023-05-10T14:24:43;3.60;;;1.23;;
72557;SDS011;60583;50.094;8.748;2023-05-10T14:27:11;3.47;;;1.50;;
72557;SDS011;60583;50.094;8.748;2023-05-10T14:29:37;8.73;;;5.03;;
72557;SDS011;60583;50.094;8.748;2023-05-10T14:32:02;4.82;;;2.35;;
72557;SDS011;60583;50.094;8.748;2023-05-10T14:34:28;2.22;;;1.00;;
72557;SDS011;60583;50.094;8.748;2023-05-10T14:36:53;3.67;;;1.40;;
72557;SDS011;60583;50.094;8.748;2023-05-10T14:39:20;4.85;;;1.30;;
72557;SDS011;60583;50.094;8.748;2023-05-10T14:41:45;3.80;;;1.27;;
72557;SDS011;60583;50.094;8.748;2023-05-10T14:44:12;3.30;;;1.10;;
72557;SDS011;60583;50.094;8.748;2023-05-10T14:46:37;3.58;;;1.20;;
72557;SDS011;60583;50.094;8.748;2023-05-10T14:49:03;4.93;;;1.40;;
72557;SDS011;60583;50.094;8.748;2023-05-10T14:51:28;3.38;;;1.10;;
72557;SDS011;60583;50.094;8.748;2023-05-10T14:53:54;2.72;;;1.17;;
72557;SDS011;60583;50.094;8.748;2023-05-10T14:56:20;3.25;;;1.10;;
72557;SDS011;60583;50.094;8.748;2023-05-10T14:58:46;3.10;;;1.13;;
72557;SDS011;60583;50.094;8.748;2023-05-10T15:01:11;2.65;;;1.00;;
72557;SDS011;60583;50.094;8.748;2023-05-10T15:03:37;3.38;;;1.20;;
72557;SDS011;60583;50.094;8.748;2023-05-10T15:06:03;4.68;;;1.40;;
72557;SDS011;60583;50.094;8.748;2023-05-10T15:08:28;3.53;;;1.17;;
72557;SDS011;60583;50.094;8.748;2023-05-10T15:10:54;2.63;;;1.40;;
72557;SDS011;60583;50.094;8.748;2023-05-10T15:13:21;3.10;;;1.10;;
72557;SDS011;60583;50.094;8.748;2023-05-10T15:15:46;3.42;;;0.93;;
72557;SDS011;60583;50.094;8.748;2023-05-10T15:18:12;3.38;;;1.40;;
72557;SDS011;60583;50.094;8.748;2023-05-10T15:20:37;3.80;;;1.80;;